Time;durP1;ratioP1;P1;durP2;ratioP2;P2;SDS_P1;SDS_P2;PMS_P1;PMS_P2;Temp;Humidity;BMP_temperature;BMP_pressure;BME280_temperature;BME280_humidity;BME280_pressure;Samples;Min_cycle;Max_cycle;Signal;HPM_P1;HPM_P2
2022/02/05 00:02:06;;;;;;;1.17;0.90;;;;;;;;;;5084173;28;20208;-64
2022/02/05 00:04:39;;;;;;;2.13;1.50;;;;;;;;;;5083191;28;20380;-65
2022/02/05 00:07:16;;;;;;;1.53;1.00;;;;;;;;;;5081394;28;20220;-64
2022/02/05 00:41:10;;;;;;;1.60;1.00;;;;;;;;;;5084265;28;20208;-64
2022/02/05 00:43:52;;;;;;;1.10;0.97;;;;;;;;;;5083000;28;20668;-64
2022/02/05 00:46:37;;;;;;;1.13;1.03;;;;;;;;;;5071063;28;20638;-65
2022/02/05 00:49:08;;;;;;;1.47;0.90;;;;;;;;;;5087734;28;20818;-65
2022/02/05 00:51:45;;;;;;;2.63;1.00;;;;;;;;;;5088377;28;20223;-64
2022/02/05 00:54:21;;;;;;;1.10;0.97;;;;;;;;;;5086521;28;20221;-65
2022/02/05 00:57:19;;;;;;;2.47;1.10;;;;;;;;;;5090171;28;20193;-65
2022/02/05 00:59:49;;;;;;;3.47;1.20;;;;;;;;;;5084696;28;20200;-65
2022/02/05 01:02:23;;;;;;;1.53;1.13;;;;;;;;;;5090318;28;20209;-64
2022/02/05 01:04:56;;;;;;;1.33;0.90;;;;;;;;;;5088672;28;20200;-64
2022/02/05 01:07:26;;;;;;;1.30;0.90;;;;;;;;;;5089579;28;20209;-64
2022/02/05 01:09:57;;;;;;;2.07;1.23;;;;;;;;;;5075404;28;20489;-64
2022/02/05 01:12:31;;;;;;;1.27;1.00;;;;;;;;;;5078063;28;20223;-64
2022/02/05 01:15:01;;;;;;;2.53;1.00;;;;;;;;;;5086688;28;20243;-64
2022/02/05 01:17:41;;;;;;;1.03;0.93;;;;;;;;;;5068794;28;20201;-64
2022/02/05 01:23:07;;;;;;;1.40;0.90;;;;;;;;;;5086332;28;20221;-64
2022/02/05 01:25:50;;;;;;;1.50;1.20;;;;;;;;;;5089968;28;20576;-64
2022/02/05 01:28:27;;;;;;;1.80;1.17;;;;;;;;;;5086845;28;20209;-64
2022/02/05 01:31:02;;;;;;;1.57;1.10;;;;;;;;;;5089172;28;20189;-64
2022/02/05 01:33:53;;;;;;;1.57;1.40;;;;;;;;;;5084365;28;20248;-64
2022/02/05 01:39:31;;;;;;;1.53;0.97;;;;;;;;;;5072987;28;20203;-64
2022/02/05 01:50:58;;;;;;;1.83;0.90;;;;;;;;;;5074035;28;20193;-63
2022/02/05 01:56:31;;;;;;;1.47;1.10;;;;;;;;;;5087989;28;20232;-64
2022/02/05 02:04:52;;;;;;;0.90;0.70;;;;;;;;;;5099241;28;20224;-64
2022/02/05 02:10:55;;;;;;;1.20;0.80;;;;;;;;;;5084574;28;20212;-64
2022/02/05 02:13:54;;;;;;;1.77;1.03;;;;;;;;;;5084265;28;20197;-64
2022/02/05 02:19:20;;;;;;;1.83;1.13;;;;;;;;;;5085872;28;20223;-63
2022/02/05 02:22:06;;;;;;;2.50;0.97;;;;;;;;;;5084193;28;20220;-64
2022/02/05 02:25:06;;;;;;;1.50;1.17;;;;;;;;;;5076259;28;20205;-64
2022/02/05 02:27:59;;;;;;;2.60;1.43;;;;;;;;;;5084719;28;20228;-64
2022/02/05 02:30:33;;;;;;;1.50;1.23;;;;;;;;;;5086812;28;20201;-64
2022/02/05 02:33:15;;;;;;;2.63;1.43;;;;;;;;;;5087055;28;20203;-64
2022/02/05 02:35:47;;;;;;;2.33;1.47;;;;;;;;;;5087432;28;20196;-64
2022/02/05 02:38:24;;;;;;;1.93;1.37;;;;;;;;;;5091419;28;20209;-64
2022/02/05 02:41:04;;;;;;;1.93;1.17;;;;;;;;;;5086905;28;20212;-64
2022/02/05 02:43:37;;;;;;;1.90;1.30;;;;;;;;;;5086440;28;20204;-64
2022/02/05 02:46:09;;;;;;;5.93;1.40;;;;;;;;;;5083113;28;20221;-65
2022/02/05 02:48:46;;;;;;;2.23;1.23;;;;;;;;;;5088266;28;20200;-64
2022/02/05 02:57:21;;;;;;;3.20;1.63;;;;;;;;;;5080917;28;20818;-64
2022/02/05 03:00:01;;;;;;;1.30;1.03;;;;;;;;;;5079939;28;20235;-64
2022/02/05 03:02:30;;;;;;;1.30;1.00;;;;;;;;;;5081643;28;20212;-64
2022/02/05 03:05:05;;;;;;;1.83;1.20;;;;;;;;;;5072688;28;20215;-64
2022/02/05 03:07:34;;;;;;;1.77;1.10;;;;;;;;;;5083618;28;20217;-64
2022/02/05 03:10:04;;;;;;;1.83;1.40;;;;;;;;;;5066342;28;20318;-64
2022/02/05 03:12:37;;;;;;;2.57;1.63;;;;;;;;;;5086509;28;20823;-64
2022/02/05 03:15:07;;;;;;;1.40;1.20;;;;;;;;;;5087594;28;20553;-64
2022/02/05 03:17:53;;;;;;;2.00;1.07;;;;;;;;;;5084934;28;20205;-64
2022/02/05 03:20:28;;;;;;;1.70;1.10;;;;;;;;;;5085501;28;20515;-64
2022/02/05 03:23:03;;;;;;;3.17;1.67;;;;;;;;;;5085314;28;20236;-64
2022/02/05 03:25:38;;;;;;;1.40;1.20;;;;;;;;;;5083411;28;20194;-64
2022/02/05 03:28:08;;;;;;;1.90;1.23;;;;;;;;;;5094377;28;20216;-64
2022/02/05 03:30:39;;;;;;;2.20;1.27;;;;;;;;;;5082152;28;20196;-64
2022/02/05 03:33:07;;;;;;;2.90;1.30;;;;;;;;;;5088654;28;20205;-64
2022/02/05 03:35:37;;;;;;;2.97;1.40;;;;;;;;;;5079290;28;20232;-64
2022/02/05 03:38:06;;;;;;;2.20;1.20;;;;;;;;;;5087579;28;20223;-64
2022/02/05 03:40:38;;;;;;;2.20;1.20;;;;;;;;;;5084505;28;20221;-64
2022/02/05 03:43:21;;;;;;;2.97;1.00;;;;;;;;;;5079000;28;20299;-64
2022/02/05 03:45:49;;;;;;;5.53;1.47;;;;;;;;;;5066794;28;20535;-64
2022/02/05 03:48:19;;;;;;;1.70;1.00;;;;;;;;;;5078983;28;20300;-64
2022/02/05 03:50:51;;;;;;;1.73;1.23;;;;;;;;;;5084862;28;20215;-64
2022/02/05 03:53:19;;;;;;;1.77;1.30;;;;;;;;;;5078271;28;20208;-63
2022/02/05 03:55:49;;;;;;;2.23;1.33;;;;;;;;;;5070725;28;20242;-64
2022/02/05 03:58:20;;;;;;;2.00;1.03;;;;;;;;;;5081184;28;20233;-64
2022/02/05 04:00:50;;;;;;;1.73;1.13;;;;;;;;;;5086074;28;20197;-64
2022/02/05 04:03:20;;;;;;;2.67;1.33;;;;;;;;;;5082129;28;20193;-63
2022/02/05 04:05:50;;;;;;;2.00;1.20;;;;;;;;;;5079650;28;20224;-64
2022/02/05 04:08:24;;;;;;;1.97;1.20;;;;;;;;;;5084933;28;20291;-64
2022/02/05 04:11:08;;;;;;;1.53;1.10;;;;;;;;;;5080110;28;20216;-64
2022/02/05 04:16:25;;;;;;;1.97;1.10;;;;;;;;;;5076037;28;20188;-64
2022/02/05 04:18:56;;;;;;;1.63;1.30;;;;;;;;;;5083468;28;20676;-64
2022/02/05 04:21:31;;;;;;;1.30;1.07;;;;;;;;;;5068536;28;20294;-63
2022/02/05 04:24:02;;;;;;;3.20;1.50;;;;;;;;;;5086601;28;20665;-64
2022/02/05 04:26:34;;;;;;;1.53;1.17;;;;;;;;;;5085983;28;20188;-63
2022/02/05 04:29:07;;;;;;;3.00;1.50;;;;;;;;;;5093098;28;20197;-64
2022/02/05 04:31:37;;;;;;;2.40;1.30;;;;;;;;;;5069953;28;20220;-64
2022/02/05 04:34:09;;;;;;;2.00;1.37;;;;;;;;;;5080592;28;20627;-64
2022/02/05 04:36:41;;;;;;;1.63;1.03;;;;;;;;;;5081688;28;20193;-63
2022/02/05 04:39:16;;;;;;;2.83;1.30;;;;;;;;;;5083613;28;20201;-63
2022/02/05 04:42:02;;;;;;;1.57;1.40;;;;;;;;;;5083237;28;20208;-64
2022/02/05 05:01:34;;;;;;;2.27;1.10;;;;;;;;;;5082660;28;20194;-63
2022/02/05 05:04:37;;;;;;;1.83;0.90;;;;;;;;;;5084860;28;20200;-64
2022/02/05 05:13:02;;;;;;;1.53;1.20;;;;;;;;;;5076591;28;20205;-64
2022/02/05 05:21:25;;;;;;;1.87;1.10;;;;;;;;;;5026217;28;20820;-64
2022/02/05 05:23:58;;;;;;;2.40;1.20;;;;;;;;;;5043905;28;20236;-63
2022/02/05 05:26:28;;;;;;;1.30;0.93;;;;;;;;;;5060177;28;20217;-64
2022/02/05 05:28:58;;;;;;;1.73;1.00;;;;;;;;;;5049422;28;20340;-64
2022/02/05 05:31:32;;;;;;;1.90;1.07;;;;;;;;;;5058429;28;20206;-64
2022/02/05 05:34:02;;;;;;;1.60;1.27;;;;;;;;;;5062786;28;20212;-64
2022/02/05 05:36:33;;;;;;;3.53;1.17;;;;;;;;;;5060660;28;20191;-64
2022/02/05 05:39:03;;;;;;;1.93;1.03;;;;;;;;;;5070223;28;20216;-64
2022/02/05 05:41:39;;;;;;;1.50;1.00;;;;;;;;;;5062194;28;20794;-64
2022/02/05 05:52:29;;;;;;;2.67;1.40;;;;;;;;;;5078253;28;20203;-64
2022/02/05 05:55:01;;;;;;;2.20;1.30;;;;;;;;;;5084019;28;20706;-64
2022/02/05 05:57:44;;;;;;;3.90;1.60;;;;;;;;;;5074481;28;20285;-64
2022/02/05 06:00:14;;;;;;;2.03;0.97;;;;;;;;;;5088590;28;20197;-63
2022/02/05 06:02:46;;;;;;;1.33;1.10;;;;;;;;;;5085680;28;20212;-64
2022/02/05 06:05:18;;;;;;;3.17;1.33;;;;;;;;;;5083772;28;20231;-63
2022/02/05 06:07:48;;;;;;;3.33;1.10;;;;;;;;;;5086644;28;20220;-63
2022/02/05 06:10:19;;;;;;;1.37;1.00;;;;;;;;;;5084531;28;20212;-63
2022/02/05 06:12:48;;;;;;;1.87;1.10;;;;;;;;;;5093896;28;20209;-64
2022/02/05 06:15:18;;;;;;;1.63;1.00;;;;;;;;;;5080749;28;20220;-64
2022/02/05 06:17:50;;;;;;;2.27;1.10;;;;;;;;;;5072909;28;20205;-63
2022/02/05 06:20:24;;;;;;;1.23;1.07;;;;;;;;;;5086755;28;20209;-63
2022/02/05 06:22:55;;;;;;;1.43;1.00;;;;;;;;;;5084405;28;20247;-63
2022/02/05 06:25:26;;;;;;;1.60;0.97;;;;;;;;;;5087157;28;20229;-63
2022/02/05 06:27:57;;;;;;;1.53;1.10;;;;;;;;;;5085671;28;20236;-64
2022/02/05 06:30:29;;;;;;;1.50;0.70;;;;;;;;;;5088400;28;20193;-64
2022/02/05 06:33:01;;;;;;;2.03;1.00;;;;;;;;;;5086507;28;20306;-64
2022/02/05 06:35:33;;;;;;;2.00;1.10;;;;;;;;;;5075978;28;20212;-64
2022/02/05 06:38:05;;;;;;;2.07;1.20;;;;;;;;;;5083032;28;20205;-64
2022/02/05 06:40:37;;;;;;;1.30;0.90;;;;;;;;;;5088636;28;20193;-64
2022/02/05 06:43:10;;;;;;;2.60;1.20;;;;;;;;;;5086944;28;20561;-64
2022/02/05 06:45:41;;;;;;;3.63;1.37;;;;;;;;;;5072734;28;20265;-64
2022/02/05 06:48:13;;;;;;;2.73;1.23;;;;;;;;;;5085137;28;20620;-63
2022/02/05 06:50:43;;;;;;;2.40;1.60;;;;;;;;;;5057575;28;20251;-64
2022/02/05 06:53:13;;;;;;;2.63;1.30;;;;;;;;;;5084175;28;20205;-64
2022/02/05 06:55:56;;;;;;;2.03;0.97;;;;;;;;;;5086548;28;20233;-64
2022/02/05 06:58:27;;;;;;;2.57;1.67;;;;;;;;;;5085089;28;20270;-63
2022/02/05 07:00:59;;;;;;;2.07;1.20;;;;;;;;;;5087725;28;20201;-63
2022/02/05 07:03:33;;;;;;;2.03;0.90;;;;;;;;;;5086862;28;20192;-64
2022/02/05 07:06:05;;;;;;;2.83;1.10;;;;;;;;;;5088592;28;20208;-64
2022/02/05 07:08:49;;;;;;;3.40;1.30;;;;;;;;;;5087972;28;20228;-64
2022/02/05 07:11:19;;;;;;;2.07;1.50;;;;;;;;;;5079656;28;20263;-64
2022/02/05 07:13:51;;;;;;;1.27;0.90;;;;;;;;;;5082019;28;20227;-63
2022/02/05 07:16:28;;;;;;;1.83;1.30;;;;;;;;;;5084540;28;20204;-64
2022/02/05 07:21:44;;;;;;;2.30;1.20;;;;;;;;;;5085839;28;20244;-64
2022/02/05 07:24:32;;;;;;;1.70;1.30;;;;;;;;;;5087649;28;20197;-64
2022/02/05 07:29:52;;;;;;;2.43;1.27;;;;;;;;;;5087285;28;20521;-64
2022/02/05 07:32:26;;;;;;;1.90;1.30;;;;;;;;;;5084111;28;20531;-64
2022/02/05 07:34:58;;;;;;;1.60;1.10;;;;;;;;;;5084502;28;20697;-64
2022/02/05 07:37:27;;;;;;;2.50;1.20;;;;;;;;;;5086210;28;20241;-64
2022/02/05 07:39:57;;;;;;;2.10;1.10;;;;;;;;;;5084656;28;20205;-64
2022/02/05 07:42:29;;;;;;;2.30;1.20;;;;;;;;;;5084485;28;20650;-64
2022/02/05 07:45:07;;;;;;;2.23;0.97;;;;;;;;;;5080496;28;20209;-63
2022/02/05 07:47:34;;;;;;;2.20;1.27;;;;;;;;;;5082545;28;20216;-64
2022/02/05 07:50:08;;;;;;;1.47;1.10;;;;;;;;;;5083818;28;20204;-64
2022/02/05 07:52:40;;;;;;;1.73;1.13;;;;;;;;;;5082420;28;20635;-63
2022/02/05 07:55:17;;;;;;;2.07;0.90;;;;;;;;;;5082928;28;20224;-63
2022/02/05 07:57:45;;;;;;;1.37;1.00;;;;;;;;;;5073580;28;20223;-63
2022/02/05 08:00:17;;;;;;;1.50;1.13;;;;;;;;;;5085456;28;20258;-63
2022/02/05 08:02:47;;;;;;;2.10;1.30;;;;;;;;;;5093745;28;20197;-64
2022/02/05 08:05:20;;;;;;;1.60;1.17;;;;;;;;;;5083651;28;20200;-64
2022/02/05 08:07:52;;;;;;;2.47;1.27;;;;;;;;;;5085114;28;20810;-64
2022/02/05 08:10:32;;;;;;;2.50;1.20;;;;;;;;;;5082516;28;20256;-63
2022/02/05 08:13:13;;;;;;;1.93;1.17;;;;;;;;;;5092210;28;20229;-63
2022/02/05 08:16:08;;;;;;;4.77;1.00;;;;;;;;;;5083958;28;20197;-63
2022/02/05 08:18:46;;;;;;;1.77;1.10;;;;;;;;;;5078501;28;20204;-64
2022/02/05 08:21:18;;;;;;;2.80;1.53;;;;;;;;;;5093374;28;20197;-64
2022/02/05 08:23:49;;;;;;;2.67;1.03;;;;;;;;;;5078556;28;20201;-63
2022/02/05 08:26:27;;;;;;;1.60;1.20;;;;;;;;;;5085549;28;20239;-63
2022/02/05 08:29:10;;;;;;;2.87;1.37;;;;;;;;;;5082268;28;20924;-63
2022/02/05 08:31:44;;;;;;;2.60;1.20;;;;;;;;;;5088463;28;20199;-64
2022/02/05 08:34:19;;;;;;;1.90;1.27;;;;;;;;;;5085121;28;20220;-64
2022/02/05 08:36:57;;;;;;;2.90;1.60;;;;;;;;;;5086652;28;20578;-64
2022/02/05 08:39:29;;;;;;;3.23;1.33;;;;;;;;;;5082432;28;20246;-63
2022/02/05 08:41:59;;;;;;;3.53;1.40;;;;;;;;;;5083973;28;20201;-64
2022/02/05 08:44:32;;;;;;;3.07;1.30;;;;;;;;;;5083659;28;20212;-64
2022/02/05 08:47:01;;;;;;;3.37;1.87;;;;;;;;;;5081946;28;20244;-64
2022/02/05 08:49:32;;;;;;;3.23;1.50;;;;;;;;;;5067391;28;20214;-65
2022/02/05 08:52:02;;;;;;;2.50;1.00;;;;;;;;;;5087285;28;20201;-64
2022/02/05 08:54:34;;;;;;;2.77;1.30;;;;;;;;;;5082682;28;20327;-65
2022/02/05 08:57:08;;;;;;;3.37;1.50;;;;;;;;;;5086895;28;20205;-65
2022/02/05 09:02:26;;;;;;;3.63;1.30;;;;;;;;;;5073840;28;20200;-65
2022/02/05 09:05:14;;;;;;;2.23;1.47;;;;;;;;;;5089131;28;20241;-65
2022/02/05 09:07:47;;;;;;;2.87;1.40;;;;;;;;;;5088863;28;20205;-63
2022/02/05 09:10:32;;;;;;;2.53;1.10;;;;;;;;;;5081602;28;20659;-63
2022/02/05 09:16:11;;;;;;;3.63;1.80;;;;;;;;;;5053037;28;20217;-65
2022/02/05 09:18:43;;;;;;;2.70;1.43;;;;;;;;;;5084645;28;20196;-64
2022/02/05 09:21:14;;;;;;;3.07;1.40;;;;;;;;;;5093874;28;20205;-63
2022/02/05 09:23:47;;;;;;;3.57;1.90;;;;;;;;;;5087290;28;20196;-63
2022/02/05 09:26:16;;;;;;;3.70;1.47;;;;;;;;;;5089713;28;20220;-64
2022/02/05 09:28:47;;;;;;;5.17;1.70;;;;;;;;;;5066075;28;20305;-64
2022/02/05 09:31:27;;;;;;;4.80;1.57;;;;;;;;;;5084353;28;20336;-63
2022/02/05 09:33:59;;;;;;;2.60;1.30;;;;;;;;;;5082559;28;20670;-63
2022/02/05 09:36:31;;;;;;;3.47;1.57;;;;;;;;;;5073218;28;20207;-64
2022/02/05 09:39:19;;;;;;;3.70;1.50;;;;;;;;;;5086575;28;20204;-64
2022/02/05 09:41:57;;;;;;;3.00;1.30;;;;;;;;;;5086126;28;20220;-63
2022/02/05 09:44:30;;;;;;;5.70;1.70;;;;;;;;;;5086459;28;20600;-63
2022/02/05 09:47:01;;;;;;;8.23;1.80;;;;;;;;;;5090432;28;20209;-63
2022/02/05 09:49:32;;;;;;;5.77;2.00;;;;;;;;;;5078831;28;20412;-62
2022/02/05 09:52:20;;;;;;;4.10;1.53;;;;;;;;;;5084839;28;20641;-62
2022/02/05 09:54:54;;;;;;;4.43;1.90;;;;;;;;;;5079671;28;20612;-62
2022/02/05 09:57:23;;;;;;;5.10;1.80;;;;;;;;;;5092883;28;20673;-64
2022/02/05 09:59:59;;;;;;;5.47;1.87;;;;;;;;;;5084169;28;20564;-64
2022/02/05 10:02:36;;;;;;;3.70;1.67;;;;;;;;;;5084534;28;20266;-64
2022/02/05 10:05:17;;;;;;;3.90;1.97;;;;;;;;;;5083231;28;20209;-63
2022/02/05 10:07:58;;;;;;;4.13;1.90;;;;;;;;;;5082918;28;20201;-62
2022/02/05 10:10:47;;;;;;;4.30;1.63;;;;;;;;;;5065707;28;20304;-63
2022/02/05 10:13:18;;;;;;;2.87;1.60;;;;;;;;;;5072073;28;20204;-62
2022/02/05 10:15:54;;;;;;;3.43;1.67;;;;;;;;;;5083936;28;20703;-63
2022/02/05 10:18:28;;;;;;;3.83;1.47;;;;;;;;;;5092417;28;20205;-63
2022/02/05 10:21:01;;;;;;;4.20;2.07;;;;;;;;;;5088627;28;20275;-64
2022/02/05 10:23:32;;;;;;;7.60;1.70;;;;;;;;;;5082956;28;20730;-64
2022/02/05 10:26:02;;;;;;;5.00;1.37;;;;;;;;;;5050074;28;20802;-65
2022/02/05 10:28:30;;;;;;;3.27;1.90;;;;;;;;;;5086714;28;20223;-65
2022/02/05 10:31:03;;;;;;;3.80;1.73;;;;;;;;;;5087226;28;20201;-62
2022/02/05 10:33:35;;;;;;;4.33;1.30;;;;;;;;;;5084386;28;20201;-63
2022/02/05 10:36:28;;;;;;;3.03;1.63;;;;;;;;;;5086369;28;20225;-64
2022/02/05 10:39:26;;;;;;;2.63;1.40;;;;;;;;;;5091140;28;20201;-65
2022/02/05 10:45:07;;;;;;;3.03;1.60;;;;;;;;;;5078771;28;20220;-64
2022/02/05 10:47:53;;;;;;;5.77;1.60;;;;;;;;;;5079573;28;20213;-62
2022/02/05 10:50:24;;;;;;;4.73;1.67;;;;;;;;;;5087916;28;20220;-64
2022/02/05 10:53:06;;;;;;;2.53;1.30;;;;;;;;;;5078995;28;20224;-64
2022/02/05 10:55:46;;;;;;;4.30;1.80;;;;;;;;;;5065386;28;20835;-62
2022/02/05 11:07:03;;;;;;;3.00;1.30;;;;;;;;;;5065993;28;20346;-64
2022/02/05 11:09:33;;;;;;;5.27;1.73;;;;;;;;;;5036255;28;20232;-64
2022/02/05 11:20:28;;;;;;;4.23;1.43;;;;;;;;;;5067239;28;20654;-64
2022/02/05 11:23:14;;;;;;;2.10;1.50;;;;;;;;;;5058349;28;20217;-65
2022/02/05 11:25:49;;;;;;;3.20;1.80;;;;;;;;;;5066321;28;20276;-64
2022/02/05 11:28:38;;;;;;;2.97;1.50;;;;;;;;;;5067140;28;20202;-63
2022/02/05 11:31:13;;;;;;;2.03;1.40;;;;;;;;;;5065356;28;20877;-63
2022/02/05 11:33:44;;;;;;;1.63;1.40;;;;;;;;;;5043485;28;20197;-63
2022/02/05 11:39:09;;;;;;;3.20;1.33;;;;;;;;;;5049676;28;20215;-63
2022/02/05 11:41:39;;;;;;;3.07;1.43;;;;;;;;;;5060025;28;20202;-64
2022/02/05 11:44:25;;;;;;;2.90;1.63;;;;;;;;;;5066001;28;20213;-64
2022/02/05 11:47:12;;;;;;;4.97;1.73;;;;;;;;;;5064557;28;20224;-63
2022/02/05 11:49:58;;;;;;;2.60;1.60;;;;;;;;;;5067077;28;20674;-63
2022/02/05 11:52:43;;;;;;;4.23;2.20;;;;;;;;;;5060981;28;20284;-64
2022/02/05 11:55:33;;;;;;;3.60;1.73;;;;;;;;;;5050734;28;20242;-65
2022/02/05 11:58:13;;;;;;;5.07;1.87;;;;;;;;;;5079357;28;20506;-64
2022/02/05 12:00:49;;;;;;;2.97;1.83;;;;;;;;;;5063640;28;20193;-64
2022/02/05 12:03:37;;;;;;;3.40;1.67;;;;;;;;;;5062816;28;20689;-64
2022/02/05 12:06:09;;;;;;;4.53;1.80;;;;;;;;;;5060547;28;20203;-64
2022/02/05 12:08:42;;;;;;;3.53;1.93;;;;;;;;;;5084630;28;20258;-64
2022/02/05 12:11:35;;;;;;;4.00;1.90;;;;;;;;;;5077572;28;20212;-64
2022/02/05 12:14:32;;;;;;;3.67;1.70;;;;;;;;;;5083956;28;20230;-64
2022/02/05 12:17:14;;;;;;;4.93;1.70;;;;;;;;;;5080267;28;20217;-65
2022/02/05 12:20:00;;;;;;;2.87;1.60;;;;;;;;;;5079415;28;20197;-64
2022/02/05 12:22:46;;;;;;;4.23;2.10;;;;;;;;;;5078349;28;20216;-63
2022/02/05 12:25:21;;;;;;;5.17;1.90;;;;;;;;;;5084492;28;20200;-62
2022/02/05 12:27:52;;;;;;;2.53;1.40;;;;;;;;;;5081317;28;20205;-62
2022/02/05 12:30:29;;;;;;;4.53;1.80;;;;;;;;;;5080323;28;20212;-65
2022/02/05 12:33:01;;;;;;;3.67;1.43;;;;;;;;;;5084098;28;20205;-63
2022/02/05 12:35:36;;;;;;;3.97;1.43;;;;;;;;;;5075836;28;20201;-63
2022/02/05 12:38:09;;;;;;;5.00;2.00;;;;;;;;;;5081192;28;20228;-63
2022/02/05 12:40:46;;;;;;;4.83;1.80;;;;;;;;;;5078635;28;20207;-65
2022/02/05 12:43:21;;;;;;;3.20;2.03;;;;;;;;;;5079123;28;20673;-64
2022/02/05 12:46:10;;;;;;;3.00;1.50;;;;;;;;;;5079782;28;20197;-64
2022/02/05 12:48:49;;;;;;;3.77;1.73;;;;;;;;;;5084505;28;20290;-63
2022/02/05 12:51:24;;;;;;;3.03;1.53;;;;;;;;;;5082063;28;20268;-65
2022/02/05 12:54:06;;;;;;;5.43;2.30;;;;;;;;;;5087107;28;20199;-63
2022/02/05 12:56:38;;;;;;;3.27;1.67;;;;;;;;;;5085942;28;20286;-63
2022/02/05 12:59:27;;;;;;;5.80;1.70;;;;;;;;;;5080805;28;20687;-63
2022/02/05 13:01:59;;;;;;;2.37;1.30;;;;;;;;;;5086226;28;20200;-64
2022/02/05 13:04:33;;;;;;;3.50;1.90;;;;;;;;;;5087325;28;20634;-64
2022/02/05 13:07:03;;;;;;;5.80;2.00;;;;;;;;;;5085747;28;20215;-64
2022/02/05 13:09:48;;;;;;;2.70;1.67;;;;;;;;;;5083271;28;20270;-63
2022/02/05 13:12:31;;;;;;;5.20;2.23;;;;;;;;;;5071967;28;20867;-66
2022/02/05 13:15:23;;;;;;;3.40;1.40;;;;;;;;;;5085352;28;20673;-66
2022/02/05 13:26:52;;;;;;;4.03;1.90;;;;;;;;;;5077704;28;20815;-66
2022/02/05 13:29:56;;;;;;;4.70;2.53;;;;;;;;;;5088022;28;20217;-67
2022/02/05 13:35:06;;;;;;;4.43;2.03;;;;;;;;;;5091156;27;20661;-67
2022/02/05 13:37:51;;;;;;;13.00;2.53;;;;;;;;;;5088692;28;20550;-67
2022/02/05 13:40:34;;;;;;;8.20;2.17;;;;;;;;;;5084715;28;20193;-62
2022/02/05 13:43:05;;;;;;;13.00;1.90;;;;;;;;;;5087432;28;20197;-63
2022/02/05 13:45:37;;;;;;;7.57;2.43;;;;;;;;;;5062988;28;20225;-63
2022/02/05 13:48:23;;;;;;;6.43;1.80;;;;;;;;;;5085955;28;20205;-63
2022/02/05 13:51:06;;;;;;;5.33;1.67;;;;;;;;;;5073353;28;20209;-64
2022/02/05 13:53:50;;;;;;;4.83;1.70;;;;;;;;;;5087891;28;20274;-64
2022/02/05 13:56:22;;;;;;;5.47;1.40;;;;;;;;;;5092710;28;20211;-67
2022/02/05 13:59:23;;;;;;;3.87;1.47;;;;;;;;;;5090789;28;20213;-67
2022/02/05 14:01:53;;;;;;;6.40;1.57;;;;;;;;;;5085393;28;20603;-64
2022/02/05 14:04:25;;;;;;;4.53;1.53;;;;;;;;;;5088249;28;20236;-64
2022/02/05 14:06:58;;;;;;;3.90;1.80;;;;;;;;;;5086187;28;20213;-63
2022/02/05 14:09:32;;;;;;;4.83;1.77;;;;;;;;;;5082462;28;20529;-64
2022/02/05 14:12:20;;;;;;;6.33;1.77;;;;;;;;;;5083863;28;20540;-65
2022/02/05 14:15:05;;;;;;;3.50;1.70;;;;;;;;;;5086131;28;20193;-65
2022/02/05 14:17:35;;;;;;;5.33;1.57;;;;;;;;;;5080642;28;20197;-65
2022/02/05 14:20:12;;;;;;;7.33;2.07;;;;;;;;;;5089239;28;20209;-66
2022/02/05 14:22:49;;;;;;;7.10;2.30;;;;;;;;;;5063096;28;20563;-63
2022/02/05 14:25:28;;;;;;;7.50;2.57;;;;;;;;;;5077813;28;20209;-65
2022/02/05 14:28:14;;;;;;;7.53;2.73;;;;;;;;;;5085105;28;20650;-65
2022/02/05 14:31:02;;;;;;;9.03;2.93;;;;;;;;;;5081098;28;20220;-66
2022/02/05 14:34:08;;;;;;;9.60;3.43;;;;;;;;;;5086556;28;24026;-65
2022/02/05 14:36:46;;;;;;;8.27;3.20;;;;;;;;;;5077562;28;20243;-63
2022/02/05 14:42:16;;;;;;;8.40;3.27;;;;;;;;;;5087267;28;20205;-63
2022/02/05 14:44:49;;;;;;;9.87;3.90;;;;;;;;;;5085290;28;20540;-64
2022/02/05 14:47:21;;;;;;;11.37;3.97;;;;;;;;;;5078617;28;20217;-65
2022/02/05 14:49:52;;;;;;;12.00;4.03;;;;;;;;;;5084930;28;20217;-65
2022/02/05 14:52:25;;;;;;;9.73;3.70;;;;;;;;;;5085954;28;20544;-62
2022/02/05 14:54:54;;;;;;;7.27;3.50;;;;;;;;;;5085523;28;20323;-62
2022/02/05 14:57:23;;;;;;;7.90;3.40;;;;;;;;;;5074004;28;20197;-62
2022/02/05 14:59:55;;;;;;;11.37;3.70;;;;;;;;;;5087404;28;20285;-62
2022/02/05 15:02:27;;;;;;;10.73;3.87;;;;;;;;;;5087736;28;20859;-66
2022/02/05 15:04:57;;;;;;;15.43;3.90;;;;;;;;;;5071289;28;20217;-65
2022/02/05 15:07:27;;;;;;;12.73;2.93;;;;;;;;;;5077738;28;20201;-62
2022/02/05 15:09:58;;;;;;;7.07;3.07;;;;;;;;;;5083906;28;20229;-64
2022/02/05 15:12:29;;;;;;;47.17;10.83;;;;;;;;;;5082537;28;20193;-64
2022/02/05 15:15:01;;;;;;;36.87;8.60;;;;;;;;;;5081975;28;20204;-63
2022/02/05 15:17:44;;;;;;;26.67;7.60;;;;;;;;;;5090150;27;20304;-64
2022/02/05 15:20:22;;;;;;;22.90;6.30;;;;;;;;;;5094215;28;20194;-63
2022/02/05 15:23:05;;;;;;;23.63;6.47;;;;;;;;;;5083397;28;20193;-64
2022/02/05 15:25:43;;;;;;;14.00;5.93;;;;;;;;;;5076832;28;20223;-63
2022/02/05 15:28:16;;;;;;;14.10;5.20;;;;;;;;;;5086145;28;20213;-63
2022/02/05 15:30:46;;;;;;;15.33;5.20;;;;;;;;;;5065124;28;20675;-63
2022/02/05 15:33:20;;;;;;;15.43;4.60;;;;;;;;;;5080563;28;20188;-63
2022/02/05 15:35:50;;;;;;;14.13;4.47;;;;;;;;;;5090312;28;20212;-63
2022/02/05 15:38:33;;;;;;;13.70;4.63;;;;;;;;;;5084726;28;20200;-62
2022/02/05 15:43:52;;;;;;;15.13;4.03;;;;;;;;;;5077517;28;20212;-68
2022/02/05 15:46:29;;;;;;;12.83;3.47;;;;;;;;;;5064133;28;20292;-65
2022/02/05 15:49:06;;;;;;;7.30;3.47;;;;;;;;;;5085615;28;20205;-67
2022/02/05 15:51:54;;;;;;;14.47;4.40;;;;;;;;;;5085653;28;20210;-69
2022/02/05 15:54:27;;;;;;;15.40;4.47;;;;;;;;;;5092776;28;20228;-68
2022/02/05 16:00:23;;;;;;;17.87;4.30;;;;;;;;;;5081116;28;20217;-67
2022/02/05 16:02:26;;;;;;;15.67;4.40;;;;;;;;;;5068504;28;20263;-65
2022/02/05 16:04:56;;;;;;;10.63;4.10;;;;;;;;;;5068177;28;20200;-66
2022/02/05 16:07:28;;;;;;;11.43;3.73;;;;;;;;;;5076637;28;20190;-64
2022/02/05 16:10:03;;;;;;;9.97;2.90;;;;;;;;;;5071644;28;20228;-66
2022/02/05 16:12:37;;;;;;;9.43;2.83;;;;;;;;;;5080596;28;20220;-64
2022/02/05 16:15:10;;;;;;;7.23;3.20;;;;;;;;;;5083895;28;20201;-64
2022/02/05 16:17:41;;;;;;;8.63;2.83;;;;;;;;;;5091510;28;20201;-64
2022/02/05 16:20:15;;;;;;;5.60;2.43;;;;;;;;;;5079979;28;20910;-63
2022/02/05 16:22:48;;;;;;;7.93;2.40;;;;;;;;;;5068459;28;20204;-63
2022/02/05 16:25:21;;;;;;;9.20;2.37;;;;;;;;;;5079061;28;20200;-63
2022/02/05 16:27:57;;;;;;;9.37;2.73;;;;;;;;;;5083943;28;20197;-63
2022/02/05 16:30:28;;;;;;;5.03;2.30;;;;;;;;;;5080588;28;20241;-64
2022/02/05 16:33:03;;;;;;;5.40;2.27;;;;;;;;;;5082099;28;20271;-65
2022/02/05 16:35:48;;;;;;;4.20;2.27;;;;;;;;;;5083585;28;20216;-62
2022/02/05 16:38:32;;;;;;;6.07;1.80;;;;;;;;;;5072791;28;20267;-64
2022/02/05 16:41:07;;;;;;;5.13;2.40;;;;;;;;;;5070094;28;20189;-65
2022/02/05 16:43:42;;;;;;;5.55;2.22;;;;;;;;;;5074505;28;20441;-67
2022/02/05 16:46:21;;;;;;;4.83;1.70;;;;;;;;;;5099487;28;20212;-66
2022/02/05 16:48:53;;;;;;;6.30;2.10;;;;;;;;;;5066885;28;20223;-66
2022/02/05 16:51:23;;;;;;;7.33;2.03;;;;;;;;;;5073270;28;20698;-65
2022/02/05 16:53:54;;;;;;;6.33;1.90;;;;;;;;;;5085085;28;20208;-66
2022/02/05 16:56:32;;;;;;;4.53;1.90;;;;;;;;;;5086231;28;20193;-66
2022/02/05 16:59:04;;;;;;;5.70;1.50;;;;;;;;;;5082863;28;20325;-66
2022/02/05 17:01:34;;;;;;;4.37;1.97;;;;;;;;;;5073928;28;20213;-66
2022/02/05 17:04:03;;;;;;;4.73;2.07;;;;;;;;;;5077001;28;20208;-66
2022/02/05 17:06:37;;;;;;;4.20;1.80;;;;;;;;;;5082390;28;20202;-66
2022/02/05 17:09:11;;;;;;;2.67;1.40;;;;;;;;;;5078843;28;20248;-66
2022/02/05 17:11:43;;;;;;;6.50;1.47;;;;;;;;;;5080801;28;20252;-66
2022/02/05 17:14:18;;;;;;;3.23;1.30;;;;;;;;;;5087280;28;20266;-66
2022/02/05 17:16:47;;;;;;;3.77;2.13;;;;;;;;;;5069671;28;20193;-66
2022/02/05 17:19:17;;;;;;;2.87;1.53;;;;;;;;;;5080433;28;20243;-66
2022/02/05 17:21:51;;;;;;;4.50;1.63;;;;;;;;;;5085992;28;20209;-69
2022/02/05 17:24:30;;;;;;;2.70;1.30;;;;;;;;;;5083431;28;20193;-66
2022/02/05 17:27:07;;;;;;;2.70;1.50;;;;;;;;;;5075265;28;20197;-66
2022/02/05 17:29:38;;;;;;;3.40;1.60;;;;;;;;;;5078553;28;20346;-66
2022/02/05 17:32:09;;;;;;;2.73;1.33;;;;;;;;;;5085296;28;20544;-66
2022/02/05 17:34:43;;;;;;;5.30;1.67;;;;;;;;;;5078773;28;20203;-66
2022/02/05 17:37:10;;;;;;;3.67;1.70;;;;;;;;;;5090005;28;20204;-64
2022/02/05 17:39:42;;;;;;;2.93;1.50;;;;;;;;;;5053975;28;20704;-64
2022/02/05 17:42:35;;;;;;;6.07;2.03;;;;;;;;;;5089760;28;20276;-64
2022/02/05 17:45:10;;;;;;;3.20;1.50;;;;;;;;;;5088009;28;20193;-64
2022/02/05 17:47:42;;;;;;;5.27;2.00;;;;;;;;;;5083996;28;20364;-65
2022/02/05 17:50:14;;;;;;;4.23;1.53;;;;;;;;;;5089266;28;20216;-65
2022/02/05 17:52:45;;;;;;;3.60;1.50;;;;;;;;;;5087934;28;20204;-64
2022/02/05 17:55:17;;;;;;;3.93;1.80;;;;;;;;;;5078282;28;20227;-64
2022/02/05 17:57:55;;;;;;;4.30;1.47;;;;;;;;;;5089780;28;20229;-65
2022/02/05 18:00:28;;;;;;;2.20;1.40;;;;;;;;;;5069734;28;20265;-65
2022/02/05 18:03:03;;;;;;;4.80;1.70;;;;;;;;;;5084629;28;20200;-64
2022/02/05 18:05:55;;;;;;;4.57;1.60;;;;;;;;;;5079112;28;20193;-64
2022/02/05 18:08:34;;;;;;;6.00;1.70;;;;;;;;;;5085869;28;20201;-64
2022/02/05 18:11:28;;;;;;;2.97;1.70;;;;;;;;;;5085659;28;20220;-65
2022/02/05 18:14:22;;;;;;;2.83;1.20;;;;;;;;;;5087610;28;20633;-64
2022/02/05 18:16:54;;;;;;;4.03;1.50;;;;;;;;;;5089077;28;20199;-64